createdAt,value
2022-10-19T00:02:49.051Z,15.48
2022-10-19T00:05:51.214Z,16.50
2022-10-19T00:08:55.827Z,17.40
2022-10-19T00:11:58.038Z,17.83
2022-10-19T00:15:00.234Z,15.10
2022-10-19T00:18:02.382Z,16.13
2022-10-19T00:21:06.618Z,16.27
2022-10-19T00:24:09.290Z,16.83
2022-10-19T00:27:11.509Z,15.57
2022-10-19T00:30:13.735Z,14.93
2022-10-19T00:33:21.221Z,15.45
2022-10-19T00:36:32.166Z,16.97
2022-10-19T00:39:34.382Z,15.95
2022-10-19T00:42:39.593Z,14.88
2022-10-19T00:45:41.978Z,15.88
2022-10-19T00:48:44.392Z,15.40
2022-10-19T00:51:53.658Z,17.20
2022-10-19T00:54:57.883Z,15.88
2022-10-19T00:58:02.692Z,15.98
2022-10-19T01:01:06.236Z,16.10
2022-10-19T01:04:09.462Z,15.00
2022-10-19T01:07:12.675Z,16.13
2022-10-19T01:10:14.960Z,17.08
2022-10-19T01:13:36.400Z,15.93
2022-10-19T01:16:51.017Z,17.10
2022-10-19T01:20:11.187Z,16.52
2022-10-19T01:23:34.424Z,15.97
2022-10-19T01:26:58.141Z,16.25
2022-10-19T01:30:07.800Z,16.95
2022-10-19T01:33:35.158Z,16.55
2022-10-19T01:36:42.787Z,17.95
2022-10-19T01:40:03.757Z,16.47
2022-10-19T01:43:17.842Z,16.23
2022-10-19T01:46:27.260Z,14.73
2022-10-19T01:49:35.513Z,18.23
2022-10-19T01:52:40.883Z,18.17
2022-10-19T01:55:45.120Z,16.00
2022-10-19T01:58:48.522Z,16.40
2022-10-19T02:01:52.563Z,19.58
2022-10-19T02:04:57.658Z,15.68
2022-10-19T02:08:05.910Z,16.77
2022-10-19T02:11:08.249Z,15.63
2022-10-19T02:14:15.274Z,19.40
2022-10-19T02:17:24.028Z,15.35
2022-10-19T02:20:28.369Z,17.38
2022-10-19T02:23:30.652Z,17.20
2022-10-19T02:26:33.356Z,15.93
2022-10-19T02:29:37.836Z,16.58
2022-10-19T02:32:40.726Z,17.45
2022-10-19T02:35:43.287Z,16.13
2022-10-19T02:38:45.521Z,16.40
2022-10-19T02:42:15.283Z,14.53
2022-10-19T02:45:28.318Z,16.30
2022-10-19T02:48:33.608Z,19.75
2022-10-19T02:51:41.269Z,16.48
2022-10-19T02:54:44.860Z,16.92
2022-10-19T02:57:46.996Z,18.13
2022-10-19T03:00:49.247Z,17.58
2022-10-19T03:03:51.445Z,16.95
2022-10-19T03:06:53.616Z,17.85
2022-10-19T03:09:55.821Z,17.05
2022-10-19T03:12:58.636Z,17.67
2022-10-19T03:16:11.500Z,16.08
2022-10-19T03:19:13.805Z,15.50
2022-10-19T03:22:16.085Z,17.70
2022-10-19T03:25:18.360Z,15.25
2022-10-19T03:28:20.498Z,13.93
2022-10-19T03:31:22.847Z,13.90
2022-10-19T03:34:25.109Z,17.80
2022-10-19T03:37:27.266Z,14.43
2022-10-19T03:40:29.433Z,14.60
2022-10-19T03:43:31.572Z,14.93
2022-10-19T03:46:34.549Z,14.27
2022-10-19T03:49:39.511Z,14.00
2022-10-19T03:52:43.301Z,15.70
2022-10-19T03:55:45.463Z,15.43
2022-10-19T03:58:48.908Z,14.83
2022-10-19T04:01:51.159Z,13.85
2022-10-19T04:04:53.336Z,14.75
2022-10-19T04:07:55.468Z,12.98
2022-10-19T04:11:06.253Z,13.63
2022-10-19T04:17:11.908Z,13.00
2022-10-19T04:20:14.069Z,13.25
2022-10-19T04:26:20.242Z,12.63
2022-10-19T04:29:29.388Z,13.53
2022-10-19T04:32:32.924Z,14.27
2022-10-19T04:35:35.106Z,17.73
2022-10-19T04:38:37.641Z,12.90
2022-10-19T04:41:39.823Z,13.75
2022-10-19T04:44:41.985Z,14.20
2022-10-19T04:47:44.147Z,14.13
2022-10-19T04:50:46.419Z,13.30
2022-10-19T04:53:59.531Z,12.88
2022-10-19T04:57:02.122Z,13.90
2022-10-19T05:00:07.878Z,13.57
2022-10-19T05:03:10.204Z,14.30
2022-10-19T05:06:13.224Z,10.85
2022-10-19T05:09:15.387Z,12.40
2022-10-19T05:12:17.546Z,12.27
2022-10-19T05:15:19.770Z,11.90
2022-10-19T05:18:21.922Z,12.75
2022-10-19T05:21:25.134Z,13.65
2022-10-19T05:24:27.342Z,12.52
2022-10-19T05:27:29.519Z,12.18
2022-10-19T05:30:32.512Z,11.20
2022-10-19T05:33:35.404Z,10.75
2022-10-19T05:36:39.937Z,11.25
2022-10-19T05:39:42.182Z,12.25
2022-10-19T05:42:44.328Z,14.60
2022-10-19T05:45:46.479Z,11.03
2022-10-19T05:48:48.892Z,12.23
2022-10-19T05:51:51.263Z,11.50
2022-10-19T05:54:54.039Z,12.77
2022-10-19T05:57:56.293Z,14.60
2022-10-19T06:00:59.906Z,18.27
2022-10-19T06:04:03.283Z,14.32
2022-10-19T06:07:05.804Z,20.10
2022-10-19T06:10:10.215Z,19.55
2022-10-19T06:13:18.652Z,13.05
2022-10-19T06:16:28.264Z,68.87
2022-10-19T06:19:30.405Z,29.63
2022-10-19T06:22:32.653Z,18.42
2022-10-19T06:25:35.606Z,16.85
2022-10-19T06:28:39.339Z,19.05
2022-10-19T06:31:41.562Z,16.03
2022-10-19T06:34:43.754Z,12.82
2022-10-19T06:37:46.287Z,13.00
2022-10-19T06:40:49.214Z,12.48
2022-10-19T06:43:53.428Z,16.58
2022-10-19T06:46:57.035Z,14.07
2022-10-19T06:50:00.681Z,12.63
2022-10-19T06:53:02.861Z,13.82
2022-10-19T06:56:06.480Z,14.75
2022-10-19T06:59:08.721Z,15.80
2022-10-19T07:02:12.646Z,13.50
2022-10-19T07:05:14.944Z,18.15
2022-10-19T07:08:17.767Z,15.93
2022-10-19T07:11:22.466Z,14.82
2022-10-19T07:14:24.848Z,16.02
2022-10-19T07:17:27.026Z,17.10
2022-10-19T07:20:29.321Z,16.58
2022-10-19T07:23:33.646Z,13.18
2022-10-19T07:26:36.040Z,14.80
2022-10-19T07:29:38.189Z,11.43
2022-10-19T07:32:45.935Z,12.87
2022-10-19T07:35:49.456Z,15.10
2022-10-19T07:38:51.789Z,14.93
2022-10-19T07:41:56.193Z,12.95
2022-10-19T07:44:58.395Z,13.45
2022-10-19T07:48:00.600Z,12.87
2022-10-19T07:51:08.303Z,13.63
2022-10-19T07:54:10.616Z,12.93
2022-10-19T07:57:14.759Z,12.52
2022-10-19T08:00:20.592Z,14.00
2022-10-19T08:06:48.759Z,16.30
2022-10-19T08:09:53.822Z,15.45
2022-10-19T08:12:56.424Z,12.32
2022-10-19T08:15:58.568Z,16.85
2022-10-19T08:19:09.853Z,11.27
2022-10-19T08:22:12.185Z,17.58
2022-10-19T08:25:14.488Z,8.93
2022-10-19T08:28:16.656Z,12.10
2022-10-19T08:31:21.251Z,19.25
2022-10-19T08:34:23.497Z,10.90
2022-10-19T08:37:40.802Z,8.93
2022-10-19T08:40:47.388Z,9.63
2022-10-19T08:44:21.498Z,13.63
2022-10-19T08:47:32.594Z,14.23
2022-10-19T08:50:40.951Z,9.37
2022-10-19T08:53:43.133Z,11.85
2022-10-19T08:57:18.678Z,10.32
2022-10-19T09:00:20.899Z,8.32
2022-10-19T09:03:43.859Z,13.63
2022-10-19T09:06:57.404Z,12.20
2022-10-19T09:10:04.311Z,11.93
2022-10-19T09:13:18.298Z,15.50
2022-10-19T09:16:21.356Z,7.65
2022-10-19T09:19:29.292Z,11.57
2022-10-19T09:22:35.801Z,5.03
2022-10-19T09:25:39.348Z,13.45
2022-10-19T09:29:00.209Z,6.03
2022-10-19T09:32:05.762Z,8.48
2022-10-19T09:35:19.986Z,8.05
2022-10-19T09:38:25.561Z,6.20
2022-10-19T09:41:28.625Z,5.57
2022-10-19T09:44:31.187Z,7.85
2022-10-19T09:47:36.753Z,5.30
2022-10-19T09:50:44.090Z,6.07
2022-10-19T09:53:55.958Z,7.63
2022-10-19T09:56:58.316Z,5.07
2022-10-19T10:00:00.539Z,5.97
2022-10-19T10:03:03.153Z,8.88
2022-10-19T10:06:12.501Z,8.50
2022-10-19T10:09:27.825Z,7.57
2022-10-19T10:12:30.139Z,6.30
2022-10-19T10:15:43.612Z,13.50
2022-10-19T10:18:57.861Z,7.07
2022-10-19T10:22:00.501Z,6.95
2022-10-19T10:25:13.616Z,4.87
2022-10-19T10:28:23.650Z,7.57
2022-10-19T10:31:29.723Z,6.90
2022-10-19T10:34:46.024Z,5.50
2022-10-19T10:37:52.523Z,5.35
2022-10-19T10:40:59.953Z,7.67
2022-10-19T10:44:08.378Z,3.55
2022-10-19T10:47:16.777Z,4.72
2022-10-19T10:50:31.935Z,3.10
2022-10-19T10:53:40.017Z,5.80
2022-10-19T10:56:43.993Z,4.43
2022-10-19T10:59:56.997Z,5.53
2022-10-19T11:03:10.836Z,3.78
2022-10-19T11:06:14.569Z,2.75
2022-10-19T11:09:32.587Z,3.17
2022-10-19T11:12:41.521Z,3.20
2022-10-19T11:15:52.695Z,5.13
2022-10-19T11:19:05.758Z,8.05
2022-10-19T11:22:07.971Z,4.13
2022-10-19T11:25:29.145Z,3.25
2022-10-19T11:28:41.608Z,4.07
2022-10-19T11:31:53.486Z,3.15
2022-10-19T11:35:11.864Z,3.95
2022-10-19T11:38:38.151Z,3.80
2022-10-19T11:42:05.730Z,5.05
2022-10-19T11:45:25.898Z,2.37
2022-10-19T11:48:52.882Z,5.03
2022-10-19T11:52:20.754Z,1.60
2022-10-19T11:56:01.240Z,1.60
2022-10-19T11:59:07.683Z,3.25
2022-10-19T12:02:21.856Z,4.87
2022-10-19T12:05:32.774Z,5.80
2022-10-19T12:08:57.634Z,6.90
2022-10-19T12:12:37.105Z,3.72
2022-10-19T12:15:55.545Z,1.75
2022-10-19T12:19:03.026Z,4.10
2022-10-19T12:22:11.171Z,5.85
2022-10-19T12:25:16.309Z,6.15
2022-10-19T12:28:31.718Z,5.20
2022-10-19T12:31:36.775Z,5.85
2022-10-19T12:35:09.728Z,4.77
2022-10-19T12:38:48.026Z,3.42
2022-10-19T12:41:58.907Z,4.70
2022-10-19T12:45:14.911Z,3.47
2022-10-19T12:48:20.335Z,4.97
2022-10-19T12:51:22.513Z,3.53
2022-10-19T12:54:33.344Z,2.75
2022-10-19T12:57:36.441Z,3.55
2022-10-19T13:00:39.516Z,3.05
2022-10-19T13:03:44.838Z,3.58
2022-10-19T13:06:50.167Z,3.97
2022-10-19T13:10:03.463Z,4.32
2022-10-19T13:13:05.746Z,4.53
2022-10-19T13:17:02.325Z,6.88
2022-10-19T13:20:14.045Z,4.07
2022-10-19T13:23:17.323Z,4.30
2022-10-19T13:26:34.027Z,2.05
2022-10-19T13:29:39.284Z,18.83
2022-10-19T13:32:45.214Z,35.72
2022-10-19T13:35:47.463Z,17.83
2022-10-19T13:38:58.711Z,13.17
2022-10-19T13:42:00.954Z,13.52
2022-10-19T13:45:03.261Z,5.22
2022-10-19T13:48:24.365Z,4.13
2022-10-19T13:51:51.151Z,3.65
2022-10-19T13:55:14.870Z,4.93
2022-10-19T13:58:53.547Z,7.25
2022-10-19T14:02:01.786Z,7.85
2022-10-19T14:05:42.855Z,5.68
2022-10-19T14:09:26.643Z,6.88
2022-10-19T14:12:40.394Z,5.03
2022-10-19T14:15:52.445Z,5.85
2022-10-19T14:18:56.304Z,4.32
2022-10-19T14:22:01.183Z,3.80
2022-10-19T14:25:18.349Z,4.45
2022-10-19T14:28:22.196Z,5.13
2022-10-19T14:31:31.070Z,8.63
2022-10-19T14:34:33.257Z,5.93
2022-10-19T14:37:36.831Z,4.95
2022-10-19T14:40:41.549Z,6.50
2022-10-19T14:43:43.714Z,4.77
2022-10-19T14:46:47.981Z,6.07
2022-10-19T14:49:50.914Z,6.40
2022-10-19T14:53:00.896Z,5.15
2022-10-19T14:56:14.690Z,3.33
2022-10-19T14:59:31.816Z,4.50
2022-10-19T15:02:39.459Z,4.13
2022-10-19T15:05:48.224Z,6.40
2022-10-19T15:08:57.158Z,5.75
2022-10-19T15:12:14.379Z,4.78
2022-10-19T15:15:20.141Z,3.80
2022-10-19T15:18:47.697Z,4.57
2022-10-19T15:22:26.755Z,3.95
2022-10-19T15:25:36.918Z,2.90
2022-10-19T15:28:41.652Z,5.80
2022-10-19T15:31:44.089Z,4.43
2022-10-19T15:34:46.513Z,2.92
2022-10-19T15:37:50.284Z,3.72
2022-10-19T15:41:28.678Z,3.38
2022-10-19T15:44:49.348Z,3.60
2022-10-19T15:48:09.855Z,3.10
2022-10-19T15:51:27.305Z,5.18
2022-10-19T15:54:29.436Z,3.65
2022-10-19T15:57:34.690Z,4.28
2022-10-19T16:00:37.805Z,2.55
2022-10-19T16:03:39.992Z,2.93
2022-10-19T16:06:44.591Z,3.72
2022-10-19T16:09:46.781Z,3.78
2022-10-19T16:12:49.189Z,2.90
2022-10-19T16:16:01.439Z,3.90
2022-10-19T16:19:13.258Z,3.93
2022-10-19T16:22:16.456Z,7.07
2022-10-19T16:25:19.063Z,3.97
2022-10-19T16:28:21.264Z,4.15
2022-10-19T16:31:24.455Z,2.50
2022-10-19T16:34:26.968Z,2.73
2022-10-19T16:37:29.210Z,3.13
2022-10-19T16:40:32.431Z,3.17
2022-10-19T16:43:35.700Z,3.08
2022-10-19T16:46:37.989Z,3.70
2022-10-19T16:49:40.224Z,3.07
2022-10-19T16:52:42.421Z,3.70
2022-10-19T16:55:44.700Z,2.78
2022-10-19T16:58:47.121Z,5.15
2022-10-19T17:01:49.346Z,4.90
2022-10-19T17:04:51.688Z,3.60
2022-10-19T17:07:53.993Z,3.00
2022-10-19T17:10:56.265Z,3.50
2022-10-19T17:14:01.739Z,3.05
2022-10-19T17:17:03.988Z,3.85
2022-10-19T17:20:06.797Z,2.60
2022-10-19T17:23:09.447Z,3.20
2022-10-19T17:26:12.725Z,2.83
2022-10-19T17:29:15.050Z,4.15
2022-10-19T17:32:17.347Z,5.55
2022-10-19T17:35:19.526Z,2.53
2022-10-19T17:38:21.683Z,4.45
2022-10-19T17:41:24.088Z,3.50
2022-10-19T17:44:26.293Z,3.45
2022-10-19T17:47:28.457Z,3.63
2022-10-19T17:50:30.639Z,3.60
2022-10-19T17:53:33.496Z,3.25
2022-10-19T17:56:36.797Z,4.80
2022-10-19T17:59:52.002Z,3.35
2022-10-19T18:02:55.291Z,3.70
2022-10-19T18:06:09.717Z,4.87
2022-10-19T18:09:13.765Z,3.33
2022-10-19T18:12:15.991Z,2.95
2022-10-19T18:15:18.186Z,3.33
2022-10-19T18:18:22.983Z,3.90
2022-10-19T18:21:38.554Z,3.07
2022-10-19T18:24:40.693Z,3.10
2022-10-19T18:27:42.864Z,3.67
2022-10-19T18:30:45.435Z,3.47
2022-10-19T18:33:49.043Z,3.45
2022-10-19T18:36:51.970Z,4.13
2022-10-19T18:39:54.122Z,3.17
2022-10-19T18:42:56.296Z,5.43
2022-10-19T18:46:00.227Z,3.58
2022-10-19T18:49:04.798Z,3.63
2022-10-19T18:52:07.045Z,3.00
2022-10-19T18:55:09.922Z,4.18
2022-10-19T18:58:12.554Z,3.60
2022-10-19T19:01:17.591Z,2.60
2022-10-19T19:04:19.782Z,2.53
2022-10-19T19:07:21.949Z,3.47
2022-10-19T19:10:24.404Z,3.47
2022-10-19T19:13:27.804Z,3.10
2022-10-19T19:16:33.521Z,2.53
2022-10-19T19:19:35.746Z,2.88
2022-10-19T19:22:38.207Z,4.17
2022-10-19T19:25:40.722Z,3.58
2022-10-19T19:28:46.304Z,2.97
2022-10-19T19:31:53.520Z,3.80
2022-10-19T19:34:55.713Z,3.63
2022-10-19T19:37:57.846Z,3.67
2022-10-19T19:41:03.002Z,4.20
2022-10-19T19:44:05.230Z,3.88
2022-10-19T19:47:08.404Z,3.60
2022-10-19T19:50:10.573Z,4.15
2022-10-19T19:53:12.728Z,3.70
2022-10-19T19:56:16.428Z,3.88
2022-10-19T19:59:18.746Z,4.80
2022-10-19T20:02:21.264Z,4.35
2022-10-19T20:05:25.015Z,4.68
2022-10-19T20:08:27.515Z,3.23
2022-10-19T20:11:30.303Z,4.47
2022-10-19T20:14:32.453Z,3.20
2022-10-19T20:17:34.941Z,3.78
2022-10-19T20:20:37.327Z,4.10
2022-10-19T20:23:39.599Z,4.27
2022-10-19T20:26:41.779Z,4.50
2022-10-19T20:29:43.970Z,4.35
2022-10-19T20:32:46.122Z,3.55
2022-10-19T20:35:48.281Z,5.18
2022-10-19T20:38:55.780Z,4.37
2022-10-19T20:41:57.965Z,3.22
2022-10-19T20:45:00.129Z,4.70
2022-10-19T20:48:02.308Z,4.95
2022-10-19T20:51:09.831Z,4.75
2022-10-19T20:54:12.339Z,6.73
2022-10-19T20:57:14.513Z,4.35
2022-10-19T21:00:16.799Z,6.93
2022-10-19T21:03:19.753Z,4.53
2022-10-19T21:06:23.978Z,6.43
2022-10-19T21:09:26.172Z,4.60
2022-10-19T21:12:28.443Z,6.55
2022-10-19T21:15:30.597Z,4.88
2022-10-19T21:18:32.931Z,5.38
2022-10-19T21:21:38.348Z,4.97
2022-10-19T21:24:40.603Z,4.13
2022-10-19T21:27:42.673Z,4.75
2022-10-19T21:30:44.631Z,6.78
2022-10-19T21:33:47.210Z,6.25
2022-10-19T21:36:49.836Z,3.42
2022-10-19T21:39:52.042Z,4.30
2022-10-19T21:42:54.218Z,3.35
2022-10-19T21:45:56.731Z,4.88
2022-10-19T21:48:58.978Z,3.53
2022-10-19T21:52:01.125Z,4.43
2022-10-19T21:55:03.435Z,4.43
2022-10-19T21:58:05.630Z,3.67
2022-10-19T22:01:08.405Z,3.60
2022-10-19T22:04:17.567Z,3.13
2022-10-19T22:07:19.781Z,3.58
2022-10-19T22:10:22.177Z,4.87
2022-10-19T22:13:24.396Z,4.47
2022-10-19T22:16:27.999Z,3.72
2022-10-19T22:19:30.128Z,4.28
2022-10-19T22:22:32.516Z,3.63
2022-10-19T22:25:35.549Z,4.83
2022-10-19T22:28:37.714Z,2.90
2022-10-19T22:31:40.011Z,3.28
2022-10-19T22:34:42.195Z,3.05
2022-10-19T22:37:44.351Z,3.30
2022-10-19T22:40:46.485Z,3.37
2022-10-19T22:43:48.661Z,2.42
2022-10-19T22:46:50.842Z,3.33
2022-10-19T22:49:52.970Z,3.63
2022-10-19T22:52:55.113Z,2.78
2022-10-19T22:55:57.293Z,3.60
2022-10-19T22:59:00.709Z,2.72
2022-10-19T23:02:02.960Z,3.58
2022-10-19T23:05:05.604Z,3.92
2022-10-19T23:08:07.825Z,3.63
2022-10-19T23:11:10.110Z,3.10
2022-10-19T23:14:12.278Z,3.08
2022-10-19T23:17:14.446Z,3.03
2022-10-19T23:20:16.674Z,2.72
2022-10-19T23:23:18.811Z,4.72
2022-10-19T23:26:21.735Z,3.47
2022-10-19T23:29:26.700Z,3.55
2022-10-19T23:32:28.866Z,3.40
2022-10-19T23:35:31.087Z,3.65
2022-10-19T23:38:33.657Z,2.67
2022-10-19T23:41:36.597Z,3.53
2022-10-19T23:44:38.744Z,3.22
2022-10-19T23:47:40.943Z,3.25
2022-10-19T23:50:43.117Z,4.05
2022-10-19T23:53:47.057Z,3.25
2022-10-19T23:56:49.725Z,3.30
2022-10-19T23:59:51.888Z,2.78
